createdAt,value
2023-01-29T00:02:29.631Z,98771.72
2023-01-29T00:05:10.020Z,98773.94
2023-01-29T00:07:49.406Z,98777.10
2023-01-29T00:10:21.271Z,98779.27
2023-01-29T00:12:53.015Z,98781.27
2023-01-29T00:15:24.705Z,98783.12
2023-01-29T00:17:54.815Z,98780.84
2023-01-29T00:20:26.485Z,98780.90
2023-01-29T00:22:56.627Z,98777.77
2023-01-29T00:25:28.513Z,98782.98
2023-01-29T00:27:58.634Z,98789.86
2023-01-29T00:30:30.738Z,98797.08
2023-01-29T00:33:02.508Z,98795.84
2023-01-29T00:35:32.988Z,98799.00
2023-01-29T00:38:04.596Z,98798.23
2023-01-29T00:40:55.382Z,98800.56
2023-01-29T00:43:44.628Z,98793.52
2023-01-29T00:46:16.400Z,98793.63
2023-01-29T00:48:48.136Z,98799.36
2023-01-29T00:51:18.320Z,98805.80
2023-01-29T00:53:49.968Z,98808.61
2023-01-29T00:56:20.673Z,98804.20
2023-01-29T00:58:52.824Z,98805.30
2023-01-29T01:01:39.173Z,98808.65
2023-01-29T01:04:12.460Z,98806.23
2023-01-29T01:06:44.924Z,98805.52
2023-01-29T01:09:34.293Z,98809.36
2023-01-29T01:12:06.951Z,98802.89
2023-01-29T01:14:38.612Z,98798.79
2023-01-29T01:17:08.763Z,98797.77
2023-01-29T01:19:40.484Z,98797.59
2023-01-29T01:22:11.072Z,98792.81
2023-01-29T01:24:42.769Z,98792.14
2023-01-29T01:27:13.029Z,98787.39
2023-01-29T01:29:44.689Z,98795.75
2023-01-29T01:32:15.860Z,98797.55
2023-01-29T01:34:48.147Z,98787.90
2023-01-29T01:37:18.359Z,98786.13
2023-01-29T01:39:50.529Z,98779.20
2023-01-29T01:42:22.143Z,98776.78
2023-01-29T01:44:58.407Z,98775.42
2023-01-29T01:47:35.882Z,98770.95
2023-01-29T01:50:14.965Z,98762.60
2023-01-29T01:52:52.740Z,98756.60
2023-01-29T01:55:28.617Z,98754.99
2023-01-29T01:58:07.493Z,98752.39
2023-01-29T02:00:39.866Z,98750.52
2023-01-29T02:03:30.978Z,98749.13
2023-01-29T02:06:20.617Z,98750.52
2023-01-29T02:09:14.104Z,98752.89
2023-01-29T02:11:46.145Z,98757.34
2023-01-29T02:14:18.419Z,98751.40
2023-01-29T02:16:50.667Z,98747.96
2023-01-29T02:19:24.277Z,98753.88
2023-01-29T02:22:25.742Z,98745.81
2023-01-29T02:25:19.955Z,98746.65
2023-01-29T02:28:15.004Z,98742.65
2023-01-29T02:30:54.292Z,98747.77
2023-01-29T02:33:38.499Z,98746.55
2023-01-29T02:36:20.564Z,98748.24
2023-01-29T02:39:01.456Z,98746.18
2023-01-29T02:41:39.741Z,98751.64
2023-01-29T02:44:23.148Z,98757.98
2023-01-29T02:47:02.224Z,98753.67
2023-01-29T02:49:40.350Z,98751.02
2023-01-29T02:52:17.549Z,98756.67
2023-01-29T02:54:56.406Z,98761.98
2023-01-29T02:57:30.632Z,98764.01
2023-01-29T03:00:09.084Z,98760.30
2023-01-29T03:02:48.645Z,98758.16
2023-01-29T03:05:27.115Z,98768.92
2023-01-29T03:08:03.896Z,98770.68
2023-01-29T03:10:42.175Z,98775.34
2023-01-29T03:13:19.518Z,98772.34
2023-01-29T03:16:01.331Z,98777.19
2023-01-29T03:19:06.619Z,98781.07
2023-01-29T03:22:00.029Z,98781.14
2023-01-29T03:25:00.364Z,98785.48
2023-01-29T03:27:55.869Z,98794.40
2023-01-29T03:30:50.057Z,98795.34
2023-01-29T03:33:44.924Z,98787.37
2023-01-29T03:36:22.454Z,98786.29
2023-01-29T03:38:54.522Z,98781.38
2023-01-29T03:41:34.175Z,98783.60
2023-01-29T03:44:15.709Z,98777.02
2023-01-29T03:46:57.110Z,98771.99
2023-01-29T03:49:39.144Z,98768.64
2023-01-29T03:52:20.721Z,98764.06
2023-01-29T03:55:00.795Z,98754.56
2023-01-29T03:57:39.818Z,98751.02
2023-01-29T04:00:18.510Z,98755.75
2023-01-29T04:03:15.625Z,98757.45
2023-01-29T04:05:52.362Z,98764.95
2023-01-29T04:08:31.500Z,98767.66
2023-01-29T04:11:14.562Z,98761.24
2023-01-29T04:13:48.796Z,98764.18
2023-01-29T04:16:26.361Z,98754.07
2023-01-29T04:19:07.778Z,98744.23
2023-01-29T04:21:43.045Z,98742.31
2023-01-29T04:24:15.965Z,98736.67
2023-01-29T04:27:01.371Z,98729.30
2023-01-29T04:29:48.255Z,98724.17
2023-01-29T04:32:27.071Z,98717.55
2023-01-29T04:35:11.202Z,98715.32
2023-01-29T04:37:51.417Z,98715.52
2023-01-29T04:40:34.699Z,98711.74
2023-01-29T04:43:10.725Z,98712.61
2023-01-29T04:45:54.642Z,98709.54
2023-01-29T04:48:31.542Z,98701.77
2023-01-29T04:51:10.507Z,98704.17
2023-01-29T04:53:49.589Z,98700.10
2023-01-29T04:56:26.599Z,98703.82
2023-01-29T04:59:05.049Z,98701.58
2023-01-29T05:01:39.336Z,98705.13
2023-01-29T05:04:15.487Z,98707.95
2023-01-29T05:06:47.782Z,98708.83
2023-01-29T05:09:20.873Z,98704.05
2023-01-29T05:11:53.245Z,98699.60
2023-01-29T05:14:30.457Z,98700.41
2023-01-29T05:17:06.005Z,98703.97
2023-01-29T05:19:37.716Z,98705.82
2023-01-29T05:22:10.931Z,98705.30
2023-01-29T05:24:42.608Z,98704.02
2023-01-29T05:27:34.063Z,98706.70
2023-01-29T05:30:07.195Z,98706.41
2023-01-29T05:32:39.730Z,98709.75
2023-01-29T05:35:11.762Z,98704.59
2023-01-29T05:37:43.406Z,98700.98
2023-01-29T05:40:15.808Z,98703.98
2023-01-29T05:42:47.591Z,98707.30
2023-01-29T05:45:17.786Z,98710.64
2023-01-29T05:47:49.669Z,98712.73
2023-01-29T05:50:21.512Z,98712.67
2023-01-29T05:52:58.687Z,98713.11
2023-01-29T05:55:30.773Z,98715.11
2023-01-29T05:58:04.758Z,98715.23
2023-01-29T06:00:37.443Z,98718.80
2023-01-29T06:03:07.641Z,98718.27
2023-01-29T06:05:41.475Z,98715.43
2023-01-29T06:08:13.290Z,98716.73
2023-01-29T06:10:44.981Z,98718.03
2023-01-29T06:13:15.105Z,98718.34
2023-01-29T06:15:46.800Z,98716.55
2023-01-29T06:18:16.951Z,98715.34
2023-01-29T06:20:48.632Z,98712.05
2023-01-29T06:23:18.775Z,98714.75
2023-01-29T06:25:50.472Z,98721.65
2023-01-29T06:28:20.636Z,98727.04
2023-01-29T06:30:52.326Z,98728.78
2023-01-29T06:33:22.449Z,98727.10
2023-01-29T06:35:58.622Z,98721.91
2023-01-29T06:38:30.934Z,98717.66
2023-01-29T06:41:08.772Z,98719.33
2023-01-29T06:43:41.036Z,98712.00
2023-01-29T06:46:12.927Z,98710.29
2023-01-29T06:48:44.588Z,98714.35
2023-01-29T06:51:14.748Z,98716.42
2023-01-29T06:53:46.907Z,98718.19
2023-01-29T06:56:18.694Z,98719.48
2023-01-29T06:58:48.857Z,98721.30
2023-01-29T07:01:34.651Z,98721.68
2023-01-29T07:04:07.401Z,98723.34
2023-01-29T07:06:39.064Z,98724.52
2023-01-29T07:09:09.152Z,98723.99
2023-01-29T07:11:40.748Z,98725.92
2023-01-29T07:14:10.865Z,98727.20
2023-01-29T07:16:42.510Z,98728.09
2023-01-29T07:19:12.709Z,98729.05
2023-01-29T07:21:44.317Z,98736.58
2023-01-29T07:24:14.543Z,98734.27
2023-01-29T07:26:46.284Z,98734.70
2023-01-29T07:29:16.417Z,98737.09
2023-01-29T07:31:48.180Z,98738.20
2023-01-29T07:34:20.029Z,98738.19
2023-01-29T07:36:53.684Z,98739.46
2023-01-29T07:39:25.441Z,98737.90
2023-01-29T07:41:57.092Z,98738.52
2023-01-29T07:44:28.879Z,98738.61
2023-01-29T07:46:59.115Z,98743.75
2023-01-29T07:49:32.614Z,98743.89
2023-01-29T07:52:04.394Z,98748.15
2023-01-29T07:54:36.079Z,98758.62
2023-01-29T07:57:06.287Z,98768.45
2023-01-29T07:59:37.943Z,98771.23
2023-01-29T08:02:09.713Z,98770.17
2023-01-29T08:04:41.393Z,98773.61
2023-01-29T08:07:11.555Z,98782.59
2023-01-29T08:09:43.184Z,98784.40
2023-01-29T08:12:13.282Z,98782.73
2023-01-29T08:14:45.735Z,98775.73
2023-01-29T08:17:17.586Z,98773.88
2023-01-29T08:19:49.218Z,98776.61
2023-01-29T08:22:19.314Z,98768.77
2023-01-29T08:24:54.359Z,98775.10
2023-01-29T08:27:31.839Z,98780.26
2023-01-29T08:30:01.961Z,98781.87
2023-01-29T08:32:34.038Z,98782.77
2023-01-29T08:35:06.569Z,98785.25
2023-01-29T08:37:38.203Z,98789.59
2023-01-29T08:40:13.330Z,98790.35
2023-01-29T08:42:44.982Z,98792.27
2023-01-29T08:45:15.138Z,98789.66
2023-01-29T08:47:50.878Z,98788.27
2023-01-29T08:50:22.567Z,98782.30
2023-01-29T08:52:52.719Z,98779.22
2023-01-29T08:55:24.857Z,98783.08
2023-01-29T08:57:57.326Z,98777.42
2023-01-29T09:00:29.024Z,98773.41
2023-01-29T09:03:00.911Z,98762.31
2023-01-29T09:05:32.564Z,98758.40
2023-01-29T09:08:02.829Z,98752.20
2023-01-29T09:10:35.075Z,98743.95
2023-01-29T09:13:09.985Z,98740.64
2023-01-29T09:15:42.171Z,98738.52
2023-01-29T09:18:14.692Z,98741.09
2023-01-29T09:20:46.791Z,98751.39
2023-01-29T09:23:19.130Z,98749.33
2023-01-29T09:25:51.809Z,98753.40
2023-01-29T09:28:25.090Z,98752.21
2023-01-29T09:30:57.653Z,98745.01
2023-01-29T09:33:31.061Z,98740.56
2023-01-29T09:36:06.116Z,98741.50
2023-01-29T09:38:38.475Z,98747.73
2023-01-29T09:41:24.901Z,98748.39
2023-01-29T09:44:01.430Z,98743.11
2023-01-29T09:46:45.923Z,98741.89
2023-01-29T09:49:25.740Z,98743.90
2023-01-29T09:52:08.407Z,98735.60
2023-01-29T09:54:52.339Z,98730.13
2023-01-29T09:57:30.226Z,98736.95
2023-01-29T10:00:02.184Z,98734.74
2023-01-29T10:02:56.298Z,98725.00
2023-01-29T10:05:46.349Z,98714.39
2023-01-29T10:08:40.551Z,98700.89
2023-01-29T10:11:26.294Z,98700.83
2023-01-29T10:14:17.991Z,98699.46
2023-01-29T10:17:05.941Z,98699.35
2023-01-29T10:19:57.164Z,98694.20
2023-01-29T10:22:46.203Z,98690.40
2023-01-29T10:25:20.853Z,98683.86
2023-01-29T10:27:54.409Z,98672.25
2023-01-29T10:30:33.794Z,98666.91
2023-01-29T10:33:13.184Z,98659.15
2023-01-29T10:35:50.058Z,98651.23
2023-01-29T10:38:40.047Z,98645.00
2023-01-29T10:41:31.697Z,98635.66
2023-01-29T10:44:18.445Z,98624.86
2023-01-29T10:47:03.689Z,98626.55
2023-01-29T10:49:51.657Z,98625.23
2023-01-29T10:52:36.330Z,98614.52
2023-01-29T10:55:22.167Z,98607.33
2023-01-29T10:58:07.417Z,98604.95
2023-01-29T11:00:41.534Z,98599.46
2023-01-29T11:06:20.018Z,98585.33
2023-01-29T11:08:57.112Z,98579.93
2023-01-29T11:11:37.026Z,98570.77
2023-01-29T11:14:14.936Z,98562.17
2023-01-29T11:16:49.031Z,98548.74
2023-01-29T11:19:36.876Z,98545.83
2023-01-29T11:22:16.229Z,98541.73
2023-01-29T11:24:48.697Z,98538.10
2023-01-29T11:27:26.503Z,98543.13
2023-01-29T11:29:58.838Z,98547.81
2023-01-29T11:32:35.032Z,98554.22
2023-01-29T11:35:21.620Z,98556.49
2023-01-29T11:37:53.535Z,98554.43
2023-01-29T11:40:41.302Z,98548.29
2023-01-29T11:43:32.539Z,98548.10
2023-01-29T11:46:07.217Z,98546.88
2023-01-29T11:48:47.953Z,98544.17
2023-01-29T11:51:28.180Z,98540.48
2023-01-29T11:54:02.937Z,98544.79
2023-01-29T11:56:41.045Z,98543.94
2023-01-29T11:59:26.176Z,98543.15
2023-01-29T12:02:04.766Z,98543.49
2023-01-29T12:04:40.311Z,98538.38
2023-01-29T12:07:17.540Z,98540.05
2023-01-29T12:09:55.452Z,98536.91
2023-01-29T12:12:42.362Z,98535.92
2023-01-29T12:15:24.400Z,98527.95
2023-01-29T12:18:06.613Z,98530.49
2023-01-29T12:20:42.576Z,98527.08
2023-01-29T12:23:32.234Z,98525.80
2023-01-29T12:26:10.588Z,98522.04
2023-01-29T12:28:50.751Z,98520.17
2023-01-29T12:31:37.736Z,98517.32
2023-01-29T12:34:21.376Z,98511.19
2023-01-29T12:36:57.651Z,98509.44
2023-01-29T12:39:29.857Z,98503.78
2023-01-29T12:42:05.607Z,98502.63
2023-01-29T12:44:42.610Z,98498.00
2023-01-29T12:47:20.722Z,98495.58
2023-01-29T12:49:56.992Z,98496.34
2023-01-29T12:52:40.849Z,98493.28
2023-01-29T12:55:19.300Z,98485.48
2023-01-29T12:57:55.948Z,98483.28
2023-01-29T13:00:30.508Z,98486.61
2023-01-29T13:03:09.249Z,98480.41
2023-01-29T13:05:47.363Z,98485.51
2023-01-29T13:08:23.159Z,98486.95
2023-01-29T13:10:58.935Z,98487.92
2023-01-29T13:13:37.323Z,98481.44
2023-01-29T13:16:22.230Z,98478.85
2023-01-29T13:18:59.139Z,98480.94
2023-01-29T13:21:36.817Z,98483.57
2023-01-29T13:24:15.524Z,98477.14
2023-01-29T13:26:53.792Z,98474.11
2023-01-29T13:29:32.073Z,98474.83
2023-01-29T13:32:06.473Z,98473.23
2023-01-29T13:34:46.130Z,98469.09
2023-01-29T13:37:28.092Z,98466.58
2023-01-29T13:40:02.446Z,98460.13
2023-01-29T13:42:45.961Z,98460.83
2023-01-29T13:45:24.507Z,98456.11
2023-01-29T13:48:09.354Z,98444.27
2023-01-29T13:50:43.990Z,98443.75
2023-01-29T13:53:25.392Z,98445.57
2023-01-29T13:56:17.178Z,98442.91
2023-01-29T13:58:57.273Z,98441.75
2023-01-29T14:02:04.500Z,98452.15
2023-01-29T14:04:36.289Z,98450.04
2023-01-29T14:07:26.429Z,98450.20
2023-01-29T14:10:16.619Z,98444.01
2023-01-29T14:12:55.883Z,98438.11
2023-01-29T14:15:33.539Z,98428.66
2023-01-29T14:18:20.680Z,98422.68
2023-01-29T14:21:04.695Z,98422.88
2023-01-29T14:23:46.681Z,98424.48
2023-01-29T14:26:45.496Z,98433.54
2023-01-29T14:29:34.173Z,98437.77
2023-01-29T14:32:19.271Z,98439.63
2023-01-29T14:34:56.652Z,98443.80
2023-01-29T14:37:34.301Z,98437.59
2023-01-29T14:40:21.757Z,98432.57
2023-01-29T14:43:03.219Z,98438.92
2023-01-29T14:45:36.979Z,98438.57
2023-01-29T14:48:37.778Z,98439.89
2023-01-29T14:51:12.150Z,98430.23
2023-01-29T14:53:59.531Z,98429.88
2023-01-29T14:56:36.215Z,98433.58
2023-01-29T14:59:17.984Z,98436.73
2023-01-29T15:01:52.331Z,98433.38
2023-01-29T15:04:27.509Z,98430.33
2023-01-29T15:07:05.289Z,98432.03
2023-01-29T15:09:43.592Z,98435.93
2023-01-29T15:12:25.619Z,98429.34
2023-01-29T15:15:07.075Z,98427.64
2023-01-29T15:17:49.898Z,98430.98
2023-01-29T15:20:32.337Z,98437.73
2023-01-29T15:23:06.127Z,98431.34
2023-01-29T15:25:48.950Z,98422.20
2023-01-29T15:28:21.024Z,98414.94
2023-01-29T15:30:56.291Z,98414.45
2023-01-29T15:33:29.307Z,98422.34
2023-01-29T15:36:09.507Z,98422.73
2023-01-29T15:38:41.419Z,98420.38
2023-01-29T15:41:18.360Z,98409.04
2023-01-29T15:43:51.823Z,98400.35
2023-01-29T15:46:28.808Z,98399.32
2023-01-29T15:49:07.198Z,98399.96
2023-01-29T15:51:39.851Z,98401.79
2023-01-29T15:54:15.976Z,98398.67
2023-01-29T15:56:52.161Z,98407.67
2023-01-29T15:59:26.909Z,98405.28
2023-01-29T16:01:58.719Z,98402.04
2023-01-29T16:04:32.107Z,98401.71
2023-01-29T16:07:04.309Z,98393.72
2023-01-29T16:09:36.165Z,98386.58
2023-01-29T16:12:09.176Z,98379.39
2023-01-29T16:14:42.394Z,98377.52
2023-01-29T16:17:26.091Z,98379.39
2023-01-29T16:20:02.186Z,98378.70
2023-01-29T16:22:36.338Z,98384.89
2023-01-29T16:25:13.712Z,98386.69
2023-01-29T16:27:46.141Z,98385.40
2023-01-29T16:30:19.905Z,98379.64
2023-01-29T16:32:51.987Z,98380.54
2023-01-29T16:35:23.786Z,98378.16
2023-01-29T16:38:02.091Z,98373.77
2023-01-29T16:40:35.639Z,98376.24
2023-01-29T16:43:47.565Z,98382.37
2023-01-29T16:46:37.114Z,98384.66
2023-01-29T16:49:35.931Z,98384.44
2023-01-29T16:52:20.571Z,98384.63
2023-01-29T16:54:52.497Z,98384.29
2023-01-29T16:57:26.637Z,98380.02
2023-01-29T17:00:01.569Z,98383.73
2023-01-29T17:02:38.041Z,98381.50
2023-01-29T17:05:21.487Z,98379.93
2023-01-29T17:07:56.451Z,98369.72
2023-01-29T17:10:30.148Z,98366.14
2023-01-29T17:13:06.360Z,98358.65
2023-01-29T17:15:47.068Z,98353.77
2023-01-29T17:18:22.007Z,98351.22
2023-01-29T17:20:54.552Z,98348.49
2023-01-29T17:23:26.482Z,98351.39
2023-01-29T17:25:58.506Z,98351.52
2023-01-29T17:28:39.484Z,98354.58
2023-01-29T17:31:12.032Z,98354.77
2023-01-29T17:33:45.246Z,98349.33
2023-01-29T17:36:19.444Z,98346.50
2023-01-29T17:38:51.319Z,98344.67
2023-01-29T17:41:28.327Z,98348.64
2023-01-29T17:44:00.755Z,98339.35
2023-01-29T17:46:33.386Z,98333.17
2023-01-29T17:49:07.435Z,98333.25
2023-01-29T17:51:39.523Z,98331.96
2023-01-29T17:54:11.547Z,98330.98
2023-01-29T17:56:44.026Z,98326.80
2023-01-29T17:59:18.490Z,98329.23
2023-01-29T18:01:51.212Z,98326.33
2023-01-29T18:04:23.333Z,98330.27
2023-01-29T18:06:56.878Z,98326.86
2023-01-29T18:09:29.149Z,98328.52
2023-01-29T18:12:04.096Z,98328.04
2023-01-29T18:14:36.628Z,98321.84
2023-01-29T18:17:08.639Z,98323.42
2023-01-29T18:19:40.721Z,98322.64
2023-01-29T18:22:14.140Z,98317.06
2023-01-29T18:24:49.086Z,98317.96
2023-01-29T18:27:21.118Z,98330.58
2023-01-29T18:29:53.782Z,98324.34
2023-01-29T18:32:26.261Z,98321.36
2023-01-29T18:34:58.621Z,98323.13
2023-01-29T18:37:31.060Z,98325.17
2023-01-29T18:40:03.703Z,98326.37
2023-01-29T18:42:36.431Z,98324.88
2023-01-29T18:45:13.261Z,98323.75
2023-01-29T18:47:46.190Z,98317.18
2023-01-29T18:50:23.537Z,98313.84
2023-01-29T18:52:56.795Z,98311.34
2023-01-29T18:55:29.030Z,98306.04
2023-01-29T18:58:26.938Z,98304.01
2023-01-29T19:00:55.820Z,98294.66
2023-01-29T19:03:27.902Z,98289.59
2023-01-29T19:06:07.315Z,98290.13
2023-01-29T19:08:40.519Z,98290.67
2023-01-29T19:11:15.185Z,98293.89
2023-01-29T19:13:47.950Z,98290.71
2023-01-29T19:16:20.303Z,98287.91
2023-01-29T19:18:56.407Z,98287.83
2023-01-29T19:21:30.257Z,98283.92
2023-01-29T19:24:02.364Z,98277.58
2023-01-29T19:26:34.599Z,98282.61
2023-01-29T19:29:09.296Z,98280.33
2023-01-29T19:31:41.526Z,98280.16
2023-01-29T19:34:13.715Z,98272.19
2023-01-29T19:36:45.964Z,98273.73
2023-01-29T19:39:18.196Z,98279.98
2023-01-29T19:41:50.109Z,98280.80
2023-01-29T19:44:22.693Z,98279.29
2023-01-29T19:46:55.221Z,98281.55
2023-01-29T19:49:29.831Z,98284.41
2023-01-29T19:52:02.469Z,98279.84
2023-01-29T19:54:35.119Z,98279.73
2023-01-29T19:57:10.701Z,98276.48
2023-01-29T19:59:45.809Z,98277.73
2023-01-29T20:02:18.078Z,98272.69
2023-01-29T20:04:50.412Z,98268.78
2023-01-29T20:07:22.846Z,98266.89
2023-01-29T20:09:56.068Z,98266.48
2023-01-29T20:12:28.069Z,98266.91
2023-01-29T20:14:59.975Z,98267.73
2023-01-29T20:17:32.091Z,98266.89
2023-01-29T20:20:03.936Z,98266.48
2023-01-29T20:22:35.873Z,98260.66
2023-01-29T20:25:10.288Z,98258.80
2023-01-29T20:27:42.211Z,98257.77
2023-01-29T20:30:15.503Z,98259.45
2023-01-29T20:32:47.590Z,98257.23
2023-01-29T20:35:20.130Z,98257.52
2023-01-29T20:37:51.866Z,98253.77
2023-01-29T20:40:22.117Z,98248.14
2023-01-29T20:42:53.868Z,98245.17
2023-01-29T20:45:25.837Z,98246.64
2023-01-29T20:47:58.428Z,98239.80
2023-01-29T20:50:30.274Z,98240.46
2023-01-29T20:53:02.614Z,98240.84
2023-01-29T20:55:34.974Z,98239.45
2023-01-29T20:58:07.137Z,98236.52
2023-01-29T21:00:44.593Z,98234.19
2023-01-29T21:03:16.349Z,98229.64
2023-01-29T21:05:46.623Z,98225.36
2023-01-29T21:08:18.380Z,98220.15
2023-01-29T21:10:52.954Z,98215.91
2023-01-29T21:13:24.765Z,98210.73
2023-01-29T21:15:56.530Z,98203.77
2023-01-29T21:18:26.803Z,98205.42
2023-01-29T21:20:58.920Z,98201.33
2023-01-29T21:23:30.869Z,98198.27
2023-01-29T21:26:06.011Z,98195.25
2023-01-29T21:28:37.822Z,98191.48
2023-01-29T21:31:11.360Z,98185.20
2023-01-29T21:33:43.143Z,98181.15
2023-01-29T21:36:14.990Z,98178.03
2023-01-29T21:38:46.760Z,98175.64
2023-01-29T21:41:18.642Z,98170.07
2023-01-29T21:43:48.854Z,98170.23
2023-01-29T21:46:20.794Z,98168.39
2023-01-29T21:48:53.907Z,98166.16
2023-01-29T21:51:25.681Z,98169.20
2023-01-29T21:53:57.332Z,98170.23
2023-01-29T21:56:27.554Z,98164.09
2023-01-29T21:59:01.015Z,98160.10
2023-01-29T22:01:37.337Z,98157.35
2023-01-29T22:04:11.543Z,98152.30
2023-01-29T22:06:43.260Z,98155.83
2023-01-29T22:09:13.650Z,98150.80
2023-01-29T22:11:45.410Z,98145.45
2023-01-29T22:14:18.194Z,98140.09
2023-01-29T22:16:49.871Z,98136.45
2023-01-29T22:19:20.031Z,98128.88
2023-01-29T22:21:52.375Z,98118.35
2023-01-29T22:24:24.524Z,98112.94
2023-01-29T22:26:56.196Z,98110.55
2023-01-29T22:29:26.373Z,98107.61
2023-01-29T22:31:58.017Z,98105.02
2023-01-29T22:34:28.216Z,98100.20
2023-01-29T22:36:59.895Z,98099.79
2023-01-29T22:39:30.043Z,98096.84
2023-01-29T22:42:01.716Z,98093.75
2023-01-29T22:44:31.780Z,98090.80
2023-01-29T22:47:03.611Z,98086.98
2023-01-29T22:49:35.322Z,98087.73
2023-01-29T22:52:11.394Z,98083.05
2023-01-29T22:54:44.474Z,98079.38
2023-01-29T22:57:17.045Z,98072.30
2023-01-29T22:59:48.651Z,98068.30
2023-01-29T23:02:18.827Z,98063.70
2023-01-29T23:04:51.162Z,98061.59
2023-01-29T23:07:22.816Z,98050.70
2023-01-29T23:09:52.954Z,98044.55
2023-01-29T23:12:24.579Z,98037.15
2023-01-29T23:14:54.688Z,98035.34
2023-01-29T23:17:26.280Z,98027.76
2023-01-29T23:19:57.891Z,98022.56
2023-01-29T23:22:28.001Z,98018.46
2023-01-29T23:25:00.294Z,98006.91
2023-01-29T23:27:31.981Z,98000.70
2023-01-29T23:30:02.135Z,97993.15
2023-01-29T23:32:34.169Z,97990.88
2023-01-29T23:35:06.250Z,97986.08
2023-01-29T23:37:38.002Z,97982.65
2023-01-29T23:40:09.503Z,97978.47
2023-01-29T23:42:41.123Z,97975.16
2023-01-29T23:45:12.173Z,97969.04
2023-01-29T23:47:43.803Z,97964.41
2023-01-29T23:50:14.138Z,97957.23
2023-01-29T23:52:45.765Z,97948.48
2023-01-29T23:55:16.045Z,97944.35
2023-01-29T23:57:47.651Z,97936.77
